createdAt,value
2022-08-08T00:00:54.679Z,79.54
2022-08-08T00:05:13.205Z,78.85
2022-08-08T00:10:33.912Z,78.82
2022-08-08T00:15:57.475Z,78.79
2022-08-08T00:21:01.087Z,78.65
2022-08-08T00:26:13.119Z,77.90
2022-08-08T00:32:29.343Z,78.41
2022-08-08T00:36:54.987Z,78.62
2022-08-08T00:42:34.691Z,79.21
2022-08-08T00:48:29.496Z,78.52
2022-08-08T00:54:13.617Z,78.73
2022-08-08T00:59:56.267Z,78.60
2022-08-08T01:05:59.628Z,78.64
2022-08-08T01:11:19.013Z,78.28
2022-08-08T01:16:47.343Z,78.29
2022-08-08T01:22:32.451Z,77.88
2022-08-08T01:27:47.388Z,77.72
2022-08-08T01:33:43.001Z,77.08
2022-08-08T01:39:24.169Z,78.47
2022-08-08T01:44:53.441Z,78.57
2022-08-08T01:50:19.983Z,77.99
2022-08-08T01:56:27.640Z,77.95
2022-08-08T02:01:17.115Z,78.18
2022-08-08T02:06:57.687Z,78.24
2022-08-08T02:12:12.499Z,78.04
2022-08-08T02:17:26.197Z,78.11
2022-08-08T02:23:22.761Z,78.45
2022-08-08T02:29:01.895Z,78.89
2022-08-08T02:34:27.672Z,78.65
2022-08-08T02:39:57.350Z,78.59
2022-08-08T02:45:21.348Z,79.38
2022-08-08T02:51:29.684Z,79.50
2022-08-08T02:56:54.900Z,78.76
2022-08-08T03:02:20.611Z,78.59
2022-08-08T03:07:41.917Z,78.50
2022-08-08T03:15:58.742Z,78.14
2022-08-08T03:19:27.922Z,77.72
2022-08-08T03:24:30.955Z,77.99
2022-08-08T03:29:54.784Z,78.37
2022-08-08T03:35:00.481Z,78.34
2022-08-08T03:40:05.049Z,78.38
2022-08-08T03:46:07.018Z,78.48
2022-08-08T03:50:48.554Z,78.22
2022-08-08T03:55:57.878Z,78.80
2022-08-08T04:01:24.743Z,79.07
2022-08-08T04:06:30.353Z,79.67
2022-08-08T04:11:33.599Z,79.63
2022-08-08T04:16:56.432Z,79.49
2022-08-08T04:21:59.491Z,79.55
2022-08-08T04:27:02.895Z,79.69
2022-08-08T04:32:30.955Z,79.50
2022-08-08T04:37:38.916Z,79.23
2022-08-08T04:42:46.862Z,79.44
2022-08-08T04:48:00.823Z,79.50
2022-08-08T04:53:13.710Z,79.53
2022-08-08T04:58:26.816Z,78.93
2022-08-08T05:04:08.349Z,78.11
2022-08-08T05:08:52.457Z,77.63
2022-08-08T05:14:01.008Z,77.04
2022-08-08T05:19:05.137Z,76.33
2022-08-08T05:24:10.503Z,76.02
2022-08-08T05:29:13.761Z,75.83
2022-08-08T05:34:26.397Z,75.43
2022-08-08T05:39:29.564Z,74.78
2022-08-08T05:44:46.847Z,74.00
2022-08-08T05:49:56.239Z,73.92
2022-08-08T05:55:04.426Z,73.57
2022-08-08T06:00:23.385Z,72.75
2022-08-08T06:05:35.050Z,72.27
2022-08-08T06:10:39.444Z,71.83
2022-08-08T06:15:50.928Z,71.63
2022-08-08T06:20:58.688Z,70.83
2022-08-08T06:26:39.030Z,70.82
2022-08-08T06:31:52.362Z,70.24
2022-08-08T06:37:02.116Z,69.64
2022-08-08T06:42:25.459Z,69.59
2022-08-08T06:47:33.656Z,69.39
2022-08-08T06:52:54.125Z,68.54
2022-08-08T06:58:02.113Z,67.64
2022-08-08T07:03:51.572Z,67.13
2022-08-08T07:08:40.259Z,66.90
2022-08-08T07:14:00.657Z,66.24
2022-08-08T07:19:39.343Z,65.28
2022-08-08T07:24:52.901Z,64.85
2022-08-08T07:30:02.316Z,64.38
2022-08-08T07:35:10.163Z,62.77
2022-08-08T07:40:20.959Z,60.23
2022-08-08T07:45:34.626Z,59.54
2022-08-08T07:50:59.213Z,56.93
2022-08-08T07:56:02.677Z,56.90
2022-08-08T08:01:08.243Z,56.31
2022-08-08T08:06:14.242Z,55.84
2022-08-08T08:11:21.313Z,55.11
2022-08-08T08:16:32.423Z,55.39
2022-08-08T08:21:52.910Z,54.71
2022-08-08T08:27:03.437Z,54.04
2022-08-08T08:32:08.901Z,50.60
2022-08-08T08:37:12.056Z,48.93
2022-08-08T08:42:19.355Z,48.01
2022-08-08T08:47:44.893Z,47.35
2022-08-08T08:52:59.615Z,44.64
2022-08-08T08:58:03.751Z,43.83
2022-08-08T09:03:09.069Z,45.25
2022-08-08T09:08:20.646Z,43.63
2022-08-08T09:13:25.281Z,42.47
2022-08-08T09:18:31.115Z,43.52
2022-08-08T09:23:38.307Z,43.51
2022-08-08T09:28:44.793Z,42.98
2022-08-08T09:34:16.190Z,44.24
2022-08-08T09:39:15.540Z,42.82
2022-08-08T09:44:57.437Z,42.24
2022-08-08T09:50:13.963Z,41.01
2022-08-08T09:55:51.512Z,40.92
2022-08-08T10:00:50.028Z,40.68
2022-08-08T10:06:01.088Z,38.20
2022-08-08T10:11:12.092Z,37.84
2022-08-08T10:16:41.410Z,39.46
2022-08-08T10:21:50.218Z,38.96
2022-08-08T10:26:58.881Z,39.84
2022-08-08T10:32:21.056Z,39.31
2022-08-08T10:37:28.213Z,39.58
2022-08-08T10:42:35.868Z,37.44
2022-08-08T10:47:42.971Z,35.37
2022-08-08T10:52:47.088Z,32.01
2022-08-08T10:57:53.066Z,29.25
2022-08-08T11:02:57.921Z,27.38
2022-08-08T11:08:31.012Z,26.06
2022-08-08T11:13:28.482Z,23.99
2022-08-08T11:18:35.419Z,26.61
2022-08-08T11:23:41.494Z,28.98
2022-08-08T11:28:44.938Z,27.88
2022-08-08T11:33:52.627Z,26.52
2022-08-08T11:39:05.821Z,27.82
2022-08-08T11:44:15.037Z,28.78
2022-08-08T11:49:18.643Z,25.02
2022-08-08T11:54:44.648Z,22.57
2022-08-08T12:00:01.228Z,21.15
2022-08-08T12:05:07.769Z,19.33
2022-08-08T12:10:17.802Z,18.81
2022-08-08T12:15:39.813Z,18.47
2022-08-08T12:20:45.961Z,15.85
2022-08-08T12:25:54.942Z,16.87
2022-08-08T12:31:09.406Z,17.93
2022-08-08T12:36:14.098Z,20.17
2022-08-08T12:41:34.903Z,22.58
2022-08-08T12:47:01.120Z,24.48
2022-08-08T12:52:14.150Z,26.42
2022-08-08T12:57:32.276Z,27.06
2022-08-08T13:02:51.707Z,28.01
2022-08-08T13:08:04.156Z,28.75
2022-08-08T13:13:08.271Z,29.40
2022-08-08T13:18:13.790Z,29.56
2022-08-08T13:23:36.656Z,28.94
2022-08-08T13:28:45.757Z,27.35
2022-08-08T13:33:54.526Z,26.45
2022-08-08T13:39:00.299Z,23.53
2022-08-08T13:44:03.667Z,20.83
2022-08-08T13:50:36.809Z,20.45
2022-08-08T13:55:02.966Z,20.32
2022-08-08T14:00:11.392Z,22.59
2022-08-08T14:05:21.698Z,23.62
2022-08-08T14:10:32.995Z,24.16
2022-08-08T14:15:50.428Z,25.24
2022-08-08T14:21:08.175Z,25.15
2022-08-08T14:26:28.110Z,23.40
2022-08-08T14:32:07.036Z,21.41
2022-08-08T14:36:54.465Z,24.06
2022-08-08T14:42:03.302Z,25.74
2022-08-08T14:47:17.194Z,28.70
2022-08-08T14:52:24.371Z,30.36
2022-08-08T14:58:03.341Z,30.54
2022-08-08T15:03:14.128Z,31.02
2022-08-08T15:08:21.983Z,33.14
2022-08-08T15:13:25.549Z,35.28
2022-08-08T15:18:38.337Z,36.71
2022-08-08T15:23:42.999Z,37.20
2022-08-08T15:28:46.367Z,37.82
2022-08-08T15:33:59.027Z,38.08
2022-08-08T15:39:04.203Z,35.40
2022-08-08T15:44:12.597Z,34.75
2022-08-08T15:49:17.054Z,34.50
2022-08-08T15:54:38.446Z,35.08
2022-08-08T16:00:05.805Z,36.27
2022-08-08T16:05:13.535Z,34.74
2022-08-08T16:13:05.264Z,35.41
2022-08-08T16:15:57.999Z,34.39
2022-08-08T16:21:02.818Z,35.62
2022-08-08T16:26:17.365Z,36.31
2022-08-08T16:31:22.125Z,37.08
2022-08-08T16:36:34.084Z,36.43
2022-08-08T16:41:37.127Z,36.68
2022-08-08T16:46:45.889Z,37.68
2022-08-08T16:55:00.747Z,38.84
2022-08-08T16:57:23.652Z,39.10
2022-08-08T17:02:38.300Z,39.70
2022-08-08T17:07:42.292Z,39.18
2022-08-08T17:12:47.038Z,39.69
2022-08-08T17:18:02.847Z,42.23
2022-08-08T17:23:18.191Z,43.25
2022-08-08T17:28:34.907Z,43.16
2022-08-08T17:34:49.638Z,44.06
2022-08-08T17:39:05.123Z,44.35
2022-08-08T17:44:26.917Z,43.80
2022-08-08T17:49:38.146Z,45.35
2022-08-08T17:54:46.562Z,45.57
2022-08-08T18:00:02.137Z,45.82
2022-08-08T18:05:06.046Z,46.35
2022-08-08T18:10:09.182Z,47.18
2022-08-08T18:15:12.337Z,47.55
2022-08-08T18:20:44.357Z,47.80
2022-08-08T18:25:38.361Z,48.21
2022-08-08T18:30:42.825Z,48.68
2022-08-08T18:35:48.817Z,49.67
2022-08-08T18:40:51.802Z,49.80
2022-08-08T18:46:53.568Z,50.54
2022-08-08T18:51:48.441Z,51.36
2022-08-08T18:56:44.111Z,52.12
2022-08-08T19:02:24.932Z,52.01
2022-08-08T19:07:09.978Z,52.93
2022-08-08T19:12:13.011Z,53.40
2022-08-08T19:17:28.715Z,53.62
2022-08-08T19:22:33.563Z,54.44
2022-08-08T19:27:55.560Z,55.13
2022-08-08T19:33:01.187Z,56.18
2022-08-08T19:38:03.992Z,55.70
2022-08-08T19:43:11.719Z,55.79
2022-08-08T19:48:29.231Z,56.07
2022-08-08T19:53:51.279Z,56.58
2022-08-08T19:58:55.750Z,56.77
2022-08-08T20:04:03.373Z,56.84
2022-08-08T20:09:09.011Z,57.25
2022-08-08T20:14:34.137Z,57.55
2022-08-08T20:19:43.397Z,57.97
2022-08-08T20:24:46.613Z,58.52
2022-08-08T20:29:55.905Z,58.40
2022-08-08T20:35:04.777Z,58.03
2022-08-08T20:40:08.701Z,58.07
2022-08-08T20:45:12.960Z,58.16
2022-08-08T20:50:22.096Z,58.37
2022-08-08T20:55:29.200Z,58.30
2022-08-08T21:00:41.417Z,58.48
2022-08-08T21:05:58.600Z,58.25
2022-08-08T21:11:02.076Z,58.29
2022-08-08T21:16:20.278Z,58.06
2022-08-08T21:21:39.641Z,58.02
2022-08-08T21:26:44.666Z,58.18
2022-08-08T21:31:58.374Z,58.43
2022-08-08T21:37:11.364Z,58.71
2022-08-08T21:42:14.611Z,58.06
2022-08-08T21:48:04.712Z,57.71
2022-08-08T21:54:27.209Z,57.82
2022-08-08T21:58:04.166Z,58.21
2022-08-08T22:03:10.901Z,58.35
2022-08-08T22:08:24.080Z,58.68
2022-08-08T22:13:47.683Z,58.60
2022-08-08T22:18:52.700Z,58.88
2022-08-08T22:23:59.476Z,58.39
2022-08-08T22:29:14.711Z,58.25
2022-08-08T22:34:27.030Z,59.14
2022-08-08T22:39:45.596Z,59.15
2022-08-08T22:44:49.325Z,59.44
2022-08-08T22:49:54.018Z,59.45
2022-08-08T22:55:05.033Z,59.72
2022-08-08T23:00:11.989Z,59.58
2022-08-08T23:05:16.463Z,59.40
2022-08-08T23:10:21.607Z,58.93
2022-08-08T23:16:37.640Z,59.42
2022-08-08T23:20:54.582Z,59.65
2022-08-08T23:25:59.254Z,59.76
2022-08-08T23:31:02.755Z,60.16
2022-08-08T23:36:08.381Z,60.31
2022-08-08T23:41:22.962Z,60.38
2022-08-08T23:49:08.352Z,60.96
2022-08-08T23:52:15.999Z,61.28
2022-08-08T23:57:26.374Z,61.35
